sensor_id;sensor_type;location;lat;lon;timestamp;P1;durP1;ratioP1;P2;durP2;ratioP2
81310;SDS011;70779;52.506;5.492;2023-07-29T00:02:12;6.80;;;4.65;;
81310;SDS011;70779;52.506;5.492;2023-07-29T00:04:38;8.35;;;4.13;;
81310;SDS011;70779;52.506;5.492;2023-07-29T00:07:04;7.90;;;4.55;;
81310;SDS011;70779;52.506;5.492;2023-07-29T00:09:30;5.95;;;3.80;;
81310;SDS011;70779;52.506;5.492;2023-07-29T00:11:56;6.40;;;3.88;;
81310;SDS011;70779;52.506;5.492;2023-07-29T00:14:22;5.95;;;3.55;;
81310;SDS011;70779;52.506;5.492;2023-07-29T00:16:48;5.68;;;3.72;;
81310;SDS011;70779;52.506;5.492;2023-07-29T00:19:14;5.28;;;3.35;;
81310;SDS011;70779;52.506;5.492;2023-07-29T00:21:40;5.72;;;3.28;;
81310;SDS011;70779;52.506;5.492;2023-07-29T00:24:07;7.25;;;3.58;;
81310;SDS011;70779;52.506;5.492;2023-07-29T00:26:33;7.78;;;3.35;;
81310;SDS011;70779;52.506;5.492;2023-07-29T00:28:59;7.40;;;3.13;;
81310;SDS011;70779;52.506;5.492;2023-07-29T00:31:27;5.80;;;3.05;;
81310;SDS011;70779;52.506;5.492;2023-07-29T00:33:53;4.60;;;2.92;;
81310;SDS011;70779;52.506;5.492;2023-07-29T00:36:19;4.47;;;2.65;;
81310;SDS011;70779;52.506;5.492;2023-07-29T00:38:46;5.20;;;2.55;;
81310;SDS011;70779;52.506;5.492;2023-07-29T00:41:12;5.38;;;2.67;;
81310;SDS011;70779;52.506;5.492;2023-07-29T00:43:41;4.15;;;2.40;;
81310;SDS011;70779;52.506;5.492;2023-07-29T00:46:08;4.38;;;2.22;;
81310;SDS011;70779;52.506;5.492;2023-07-29T00:48:35;3.65;;;2.05;;
81310;SDS011;70779;52.506;5.492;2023-07-29T00:51:02;4.90;;;1.83;;
81310;SDS011;70779;52.506;5.492;2023-07-29T00:53:28;2.88;;;1.73;;
81310;SDS011;70779;52.506;5.492;2023-07-29T00:55:54;2.95;;;1.70;;
81310;SDS011;70779;52.506;5.492;2023-07-29T00:58:20;6.68;;;1.73;;
81310;SDS011;70779;52.506;5.492;2023-07-29T01:00:47;3.67;;;1.35;;
81310;SDS011;70779;52.506;5.492;2023-07-29T01:03:13;1.48;;;0.88;;
81310;SDS011;70779;52.506;5.492;2023-07-29T01:06:17;2.80;;;1.15;;
81310;SDS011;70779;52.506;5.492;2023-07-29T01:08:52;1.30;;;1.13;;
81310;SDS011;70779;52.506;5.492;2023-07-29T01:11:31;2.67;;;0.90;;
81310;SDS011;70779;52.506;5.492;2023-07-29T01:14:39;3.13;;;0.80;;
81310;SDS011;70779;52.506;5.492;2023-07-29T01:17:23;1.50;;;0.82;;
81310;SDS011;70779;52.506;5.492;2023-07-29T01:20:11;1.95;;;0.95;;
81310;SDS011;70779;52.506;5.492;2023-07-29T01:22:40;2.45;;;0.90;;
81310;SDS011;70779;52.506;5.492;2023-07-29T01:25:07;2.42;;;1.02;;
81310;SDS011;70779;52.506;5.492;2023-07-29T01:27:34;2.83;;;0.70;;
81310;SDS011;70779;52.506;5.492;2023-07-29T01:30:00;1.83;;;0.70;;
81310;SDS011;70779;52.506;5.492;2023-07-29T01:33:02;2.90;;;0.88;;
81310;SDS011;70779;52.506;5.492;2023-07-29T01:35:31;2.40;;;0.68;;
81310;SDS011;70779;52.506;5.492;2023-07-29T01:38:19;0.85;;;0.38;;
81310;SDS011;70779;52.506;5.492;2023-07-29T01:41:00;2.28;;;0.90;;
81310;SDS011;70779;52.506;5.492;2023-07-29T01:43:30;3.72;;;0.77;;
81310;SDS011;70779;52.506;5.492;2023-07-29T01:45:57;3.47;;;0.60;;
81310;SDS011;70779;52.506;5.492;2023-07-29T01:48:23;2.85;;;0.63;;
81310;SDS011;70779;52.506;5.492;2023-07-29T01:50:50;2.80;;;0.50;;
81310;SDS011;70779;52.506;5.492;2023-07-29T01:53:16;2.33;;;0.70;;
81310;SDS011;70779;52.506;5.492;2023-07-29T01:55:43;2.40;;;0.70;;
81310;SDS011;70779;52.506;5.492;2023-07-29T01:58:10;2.78;;;0.88;;
81310;SDS011;70779;52.506;5.492;2023-07-29T02:00:38;2.92;;;0.80;;
81310;SDS011;70779;52.506;5.492;2023-07-29T02:03:04;1.63;;;0.80;;
81310;SDS011;70779;52.506;5.492;2023-07-29T02:05:30;2.40;;;0.80;;
81310;SDS011;70779;52.506;5.492;2023-07-29T02:07:56;2.40;;;0.60;;
81310;SDS011;70779;52.506;5.492;2023-07-29T02:10:23;4.40;;;0.80;;
81310;SDS011;70779;52.506;5.492;2023-07-29T02:12:49;1.70;;;0.80;;
81310;SDS011;70779;52.506;5.492;2023-07-29T02:15:15;5.88;;;1.02;;
81310;SDS011;70779;52.506;5.492;2023-07-29T02:17:41;2.80;;;0.80;;
81310;SDS011;70779;52.506;5.492;2023-07-29T02:20:08;2.35;;;1.10;;
81310;SDS011;70779;52.506;5.492;2023-07-29T02:22:36;3.88;;;1.10;;
81310;SDS011;70779;52.506;5.492;2023-07-29T02:25:02;2.05;;;0.70;;
81310;SDS011;70779;52.506;5.492;2023-07-29T02:27:28;2.45;;;1.08;;
81310;SDS011;70779;52.506;5.492;2023-07-29T02:29:55;5.75;;;1.05;;
81310;SDS011;70779;52.506;5.492;2023-07-29T02:32:21;4.60;;;1.02;;
81310;SDS011;70779;52.506;5.492;2023-07-29T02:34:48;1.70;;;0.88;;
81310;SDS011;70779;52.506;5.492;2023-07-29T02:37:14;3.15;;;1.08;;
81310;SDS011;70779;52.506;5.492;2023-07-29T02:39:40;2.42;;;0.98;;
81310;SDS011;70779;52.506;5.492;2023-07-29T02:42:06;4.43;;;1.27;;
81310;SDS011;70779;52.506;5.492;2023-07-29T02:44:32;3.80;;;0.90;;
81310;SDS011;70779;52.506;5.492;2023-07-29T02:46:59;6.15;;;1.10;;
81310;SDS011;70779;52.506;5.492;2023-07-29T02:49:25;2.80;;;0.90;;
81310;SDS011;70779;52.506;5.492;2023-07-29T02:51:51;3.45;;;0.70;;
81310;SDS011;70779;52.506;5.492;2023-07-29T02:54:17;2.10;;;0.82;;
81310;SDS011;70779;52.506;5.492;2023-07-29T02:56:43;3.22;;;0.75;;
81310;SDS011;70779;52.506;5.492;2023-07-29T02:59:09;5.57;;;0.90;;
81310;SDS011;70779;52.506;5.492;2023-07-29T03:01:35;6.22;;;1.00;;
81310;SDS011;70779;52.506;5.492;2023-07-29T03:04:02;5.40;;;0.90;;
81310;SDS011;70779;52.506;5.492;2023-07-29T03:06:28;2.50;;;1.00;;
81310;SDS011;70779;52.506;5.492;2023-07-29T03:08:54;4.75;;;1.30;;
81310;SDS011;70779;52.506;5.492;2023-07-29T03:11:20;3.30;;;1.13;;
81310;SDS011;70779;52.506;5.492;2023-07-29T03:13:46;6.95;;;1.30;;
81310;SDS011;70779;52.506;5.492;2023-07-29T03:16:14;6.10;;;1.02;;
81310;SDS011;70779;52.506;5.492;2023-07-29T03:18:47;2.15;;;1.00;;
81310;SDS011;70779;52.506;5.492;2023-07-29T03:21:14;4.13;;;1.20;;
81310;SDS011;70779;52.506;5.492;2023-07-29T03:23:40;4.03;;;1.02;;
81310;SDS011;70779;52.506;5.492;2023-07-29T03:26:07;3.22;;;1.02;;
81310;SDS011;70779;52.506;5.492;2023-07-29T03:28:40;3.15;;;1.10;;
81310;SDS011;70779;52.506;5.492;2023-07-29T03:31:07;3.85;;;1.15;;
81310;SDS011;70779;52.506;5.492;2023-07-29T03:33:34;4.32;;;1.30;;
81310;SDS011;70779;52.506;5.492;2023-07-29T03:36:00;6.93;;;1.50;;
81310;SDS011;70779;52.506;5.492;2023-07-29T03:38:26;5.05;;;1.42;;
81310;SDS011;70779;52.506;5.492;2023-07-29T03:40:53;5.70;;;1.50;;
81310;SDS011;70779;52.506;5.492;2023-07-29T03:43:19;3.20;;;1.33;;
81310;SDS011;70779;52.506;5.492;2023-07-29T03:45:45;6.70;;;1.48;;
81310;SDS011;70779;52.506;5.492;2023-07-29T03:48:12;4.38;;;1.30;;
81310;SDS011;70779;52.506;5.492;2023-07-29T03:50:38;5.47;;;1.58;;
81310;SDS011;70779;52.506;5.492;2023-07-29T03:53:05;3.13;;;1.23;;
81310;SDS011;70779;52.506;5.492;2023-07-29T03:55:31;4.40;;;1.40;;
81310;SDS011;70779;52.506;5.492;2023-07-29T03:57:58;5.30;;;1.40;;
81310;SDS011;70779;52.506;5.492;2023-07-29T04:00:25;5.15;;;1.42;;
81310;SDS011;70779;52.506;5.492;2023-07-29T04:02:51;5.63;;;1.80;;
81310;SDS011;70779;52.506;5.492;2023-07-29T04:05:18;4.53;;;1.48;;
81310;SDS011;70779;52.506;5.492;2023-07-29T04:07:44;6.05;;;1.77;;
81310;SDS011;70779;52.506;5.492;2023-07-29T04:10:10;4.07;;;1.50;;
81310;SDS011;70779;52.506;5.492;2023-07-29T04:12:38;7.72;;;1.80;;
81310;SDS011;70779;52.506;5.492;2023-07-29T04:15:04;8.73;;;1.90;;
81310;SDS011;70779;52.506;5.492;2023-07-29T04:17:31;5.38;;;1.88;;
81310;SDS011;70779;52.506;5.492;2023-07-29T04:19:57;4.68;;;1.63;;
81310;SDS011;70779;52.506;5.492;2023-07-29T04:24:54;5.68;;;1.83;;
81310;SDS011;70779;52.506;5.492;2023-07-29T04:27:20;5.05;;;2.00;;
81310;SDS011;70779;52.506;5.492;2023-07-29T04:29:46;5.38;;;1.92;;
81310;SDS011;70779;52.506;5.492;2023-07-29T04:32:12;4.63;;;2.10;;
81310;SDS011;70779;52.506;5.492;2023-07-29T04:34:41;3.60;;;1.85;;
81310;SDS011;70779;52.506;5.492;2023-07-29T04:37:07;7.20;;;2.03;;
81310;SDS011;70779;52.506;5.492;2023-07-29T04:39:33;6.55;;;1.88;;
81310;SDS011;70779;52.506;5.492;2023-07-29T04:41:59;6.00;;;1.95;;
81310;SDS011;70779;52.506;5.492;2023-07-29T04:44:26;4.47;;;1.80;;
81310;SDS011;70779;52.506;5.492;2023-07-29T04:46:52;4.70;;;1.75;;
81310;SDS011;70779;52.506;5.492;2023-07-29T04:49:18;6.95;;;2.00;;
81310;SDS011;70779;52.506;5.492;2023-07-29T04:51:44;5.72;;;1.67;;
81310;SDS011;70779;52.506;5.492;2023-07-29T04:54:10;4.60;;;1.80;;
81310;SDS011;70779;52.506;5.492;2023-07-29T04:56:36;6.07;;;1.83;;
81310;SDS011;70779;52.506;5.492;2023-07-29T04:59:03;7.35;;;1.65;;
81310;SDS011;70779;52.506;5.492;2023-07-29T05:01:29;6.18;;;1.83;;
81310;SDS011;70779;52.506;5.492;2023-07-29T05:03:55;3.17;;;1.42;;
81310;SDS011;70779;52.506;5.492;2023-07-29T05:06:21;5.78;;;1.88;;
81310;SDS011;70779;52.506;5.492;2023-07-29T05:08:47;4.60;;;1.65;;
81310;SDS011;70779;52.506;5.492;2023-07-29T05:11:13;3.15;;;1.70;;
81310;SDS011;70779;52.506;5.492;2023-07-29T05:13:39;4.82;;;1.80;;
81310;SDS011;70779;52.506;5.492;2023-07-29T05:16:06;5.68;;;1.67;;
81310;SDS011;70779;52.506;5.492;2023-07-29T05:18:33;4.85;;;2.00;;
81310;SDS011;70779;52.506;5.492;2023-07-29T05:20:59;5.07;;;1.73;;
81310;SDS011;70779;52.506;5.492;2023-07-29T05:23:25;5.32;;;1.50;;
81310;SDS011;70779;52.506;5.492;2023-07-29T05:25:51;4.90;;;1.80;;
81310;SDS011;70779;52.506;5.492;2023-07-29T05:28:17;6.10;;;1.65;;
81310;SDS011;70779;52.506;5.492;2023-07-29T05:30:43;4.35;;;1.60;;
81310;SDS011;70779;52.506;5.492;2023-07-29T05:33:10;4.57;;;1.27;;
81310;SDS011;70779;52.506;5.492;2023-07-29T05:35:38;4.82;;;1.75;;
81310;SDS011;70779;52.506;5.492;2023-07-29T05:38:04;4.85;;;1.73;;
81310;SDS011;70779;52.506;5.492;2023-07-29T05:40:32;5.70;;;1.58;;
81310;SDS011;70779;52.506;5.492;2023-07-29T05:42:58;5.30;;;1.80;;
81310;SDS011;70779;52.506;5.492;2023-07-29T05:45:24;4.13;;;1.45;;
81310;SDS011;70779;52.506;5.492;2023-07-29T05:47:50;5.97;;;1.85;;
81310;SDS011;70779;52.506;5.492;2023-07-29T05:50:17;5.47;;;1.95;;
81310;SDS011;70779;52.506;5.492;2023-07-29T05:52:43;4.60;;;1.63;;
81310;SDS011;70779;52.506;5.492;2023-07-29T05:55:09;5.15;;;1.80;;
81310;SDS011;70779;52.506;5.492;2023-07-29T05:57:35;6.95;;;1.70;;
81310;SDS011;70779;52.506;5.492;2023-07-29T06:00:01;5.05;;;1.58;;
81310;SDS011;70779;52.506;5.492;2023-07-29T06:02:38;5.07;;;1.65;;
81310;SDS011;70779;52.506;5.492;2023-07-29T06:05:06;4.97;;;1.73;;
81310;SDS011;70779;52.506;5.492;2023-07-29T06:07:33;4.85;;;2.20;;
81310;SDS011;70779;52.506;5.492;2023-07-29T06:09:59;3.60;;;1.48;;
81310;SDS011;70779;52.506;5.492;2023-07-29T06:12:26;5.63;;;1.67;;
81310;SDS011;70779;52.506;5.492;2023-07-29T06:14:52;2.83;;;1.50;;
81310;SDS011;70779;52.506;5.492;2023-07-29T06:17:18;5.63;;;1.70;;
81310;SDS011;70779;52.506;5.492;2023-07-29T06:19:44;4.57;;;1.50;;
81310;SDS011;70779;52.506;5.492;2023-07-29T06:22:10;6.13;;;1.48;;
81310;SDS011;70779;52.506;5.492;2023-07-29T06:24:36;7.60;;;2.05;;
81310;SDS011;70779;52.506;5.492;2023-07-29T06:27:02;2.95;;;1.80;;
81310;SDS011;70779;52.506;5.492;2023-07-29T06:29:28;5.43;;;1.90;;
81310;SDS011;70779;52.506;5.492;2023-07-29T06:31:54;6.28;;;1.85;;
81310;SDS011;70779;52.506;5.492;2023-07-29T06:34:21;6.85;;;2.17;;
81310;SDS011;70779;52.506;5.492;2023-07-29T06:36:47;4.55;;;1.80;;
81310;SDS011;70779;52.506;5.492;2023-07-29T06:39:14;4.70;;;2.03;;
81310;SDS011;70779;52.506;5.492;2023-07-29T06:41:40;4.38;;;1.70;;
81310;SDS011;70779;52.506;5.492;2023-07-29T06:44:06;5.68;;;1.90;;
81310;SDS011;70779;52.506;5.492;2023-07-29T06:46:32;4.70;;;1.58;;
81310;SDS011;70779;52.506;5.492;2023-07-29T06:48:58;5.07;;;1.67;;
81310;SDS011;70779;52.506;5.492;2023-07-29T06:51:24;6.35;;;2.10;;
81310;SDS011;70779;52.506;5.492;2023-07-29T06:53:50;4.78;;;1.83;;
81310;SDS011;70779;52.506;5.492;2023-07-29T06:56:16;6.22;;;2.30;;
81310;SDS011;70779;52.506;5.492;2023-07-29T06:58:42;5.72;;;1.92;;
81310;SDS011;70779;52.506;5.492;2023-07-29T07:01:08;3.55;;;1.63;;
81310;SDS011;70779;52.506;5.492;2023-07-29T07:03:35;5.00;;;1.77;;
81310;SDS011;70779;52.506;5.492;2023-07-29T07:06:01;5.82;;;1.83;;
81310;SDS011;70779;52.506;5.492;2023-07-29T07:08:27;6.75;;;1.85;;
81310;SDS011;70779;52.506;5.492;2023-07-29T07:10:53;5.15;;;1.55;;
81310;SDS011;70779;52.506;5.492;2023-07-29T07:13:19;6.72;;;1.98;;
81310;SDS011;70779;52.506;5.492;2023-07-29T07:15:47;4.63;;;1.77;;
81310;SDS011;70779;52.506;5.492;2023-07-29T07:18:13;3.13;;;1.40;;
81310;SDS011;70779;52.506;5.492;2023-07-29T07:20:39;5.10;;;1.67;;
81310;SDS011;70779;52.506;5.492;2023-07-29T07:23:05;5.65;;;1.80;;
81310;SDS011;70779;52.506;5.492;2023-07-29T07:25:34;7.57;;;1.73;;
81310;SDS011;70779;52.506;5.492;2023-07-29T07:28:00;5.22;;;1.80;;
81310;SDS011;70779;52.506;5.492;2023-07-29T07:30:26;4.47;;;1.40;;
81310;SDS011;70779;52.506;5.492;2023-07-29T07:32:52;6.20;;;1.50;;
81310;SDS011;70779;52.506;5.492;2023-07-29T07:35:18;5.15;;;1.70;;
81310;SDS011;70779;52.506;5.492;2023-07-29T07:37:44;3.33;;;1.77;;
81310;SDS011;70779;52.506;5.492;2023-07-29T07:40:10;3.92;;;2.00;;
81310;SDS011;70779;52.506;5.492;2023-07-29T07:42:37;5.13;;;1.90;;
81310;SDS011;70779;52.506;5.492;2023-07-29T07:45:03;3.33;;;1.65;;
81310;SDS011;70779;52.506;5.492;2023-07-29T07:47:29;5.40;;;1.70;;
81310;SDS011;70779;52.506;5.492;2023-07-29T07:49:55;4.45;;;1.70;;
81310;SDS011;70779;52.506;5.492;2023-07-29T07:52:21;5.30;;;1.77;;
81310;SDS011;70779;52.506;5.492;2023-07-29T07:54:51;6.55;;;1.90;;
81310;SDS011;70779;52.506;5.492;2023-07-29T07:57:19;4.78;;;1.52;;
81310;SDS011;70779;52.506;5.492;2023-07-29T07:59:46;4.10;;;2.08;;
81310;SDS011;70779;52.506;5.492;2023-07-29T08:02:13;5.05;;;1.95;;
81310;SDS011;70779;52.506;5.492;2023-07-29T08:04:39;7.53;;;2.10;;
81310;SDS011;70779;52.506;5.492;2023-07-29T08:07:05;5.07;;;1.58;;
81310;SDS011;70779;52.506;5.492;2023-07-29T08:09:31;5.75;;;1.75;;
81310;SDS011;70779;52.506;5.492;2023-07-29T08:11:57;7.75;;;2.10;;
81310;SDS011;70779;52.506;5.492;2023-07-29T08:14:23;5.45;;;1.40;;
81310;SDS011;70779;52.506;5.492;2023-07-29T08:16:49;4.22;;;1.80;;
81310;SDS011;70779;52.506;5.492;2023-07-29T08:19:15;3.25;;;1.88;;
81310;SDS011;70779;52.506;5.492;2023-07-29T08:21:42;4.47;;;1.80;;
81310;SDS011;70779;52.506;5.492;2023-07-29T08:24:08;3.40;;;1.40;;
81310;SDS011;70779;52.506;5.492;2023-07-29T08:26:34;4.45;;;1.63;;
81310;SDS011;70779;52.506;5.492;2023-07-29T08:29:00;2.42;;;1.45;;
81310;SDS011;70779;52.506;5.492;2023-07-29T08:31:26;3.30;;;1.67;;
81310;SDS011;70779;52.506;5.492;2023-07-29T08:33:52;5.43;;;1.40;;
81310;SDS011;70779;52.506;5.492;2023-07-29T08:36:18;3.67;;;1.15;;
81310;SDS011;70779;52.506;5.492;2023-07-29T08:38:45;4.43;;;1.30;;
81310;SDS011;70779;52.506;5.492;2023-07-29T08:41:16;4.68;;;1.40;;
81310;SDS011;70779;52.506;5.492;2023-07-29T08:43:49;4.05;;;1.40;;
81310;SDS011;70779;52.506;5.492;2023-07-29T08:46:27;3.22;;;1.17;;
81310;SDS011;70779;52.506;5.492;2023-07-29T08:48:54;5.70;;;1.83;;
81310;SDS011;70779;52.506;5.492;2023-07-29T08:51:21;2.78;;;1.48;;
81310;SDS011;70779;52.506;5.492;2023-07-29T08:53:48;5.28;;;1.83;;
81310;SDS011;70779;52.506;5.492;2023-07-29T08:56:15;3.45;;;1.60;;
81310;SDS011;70779;52.506;5.492;2023-07-29T08:58:41;2.45;;;1.52;;
81310;SDS011;70779;52.506;5.492;2023-07-29T09:01:08;4.20;;;1.85;;
81310;SDS011;70779;52.506;5.492;2023-07-29T09:03:34;4.25;;;1.80;;
81310;SDS011;70779;52.506;5.492;2023-07-29T09:06:01;3.88;;;1.63;;
81310;SDS011;70779;52.506;5.492;2023-07-29T09:08:28;5.82;;;1.50;;
81310;SDS011;70779;52.506;5.492;2023-07-29T09:10:55;3.85;;;1.52;;
81310;SDS011;70779;52.506;5.492;2023-07-29T09:13:21;6.43;;;1.48;;
81310;SDS011;70779;52.506;5.492;2023-07-29T09:15:47;4.30;;;1.75;;
81310;SDS011;70779;52.506;5.492;2023-07-29T09:18:17;4.00;;;1.55;;
81310;SDS011;70779;52.506;5.492;2023-07-29T09:20:48;2.97;;;1.45;;
81310;SDS011;70779;52.506;5.492;2023-07-29T09:23:15;3.58;;;1.10;;
81310;SDS011;70779;52.506;5.492;2023-07-29T09:25:41;2.05;;;0.82;;
81310;SDS011;70779;52.506;5.492;2023-07-29T09:28:09;2.88;;;1.10;;
81310;SDS011;70779;52.506;5.492;2023-07-29T09:30:40;2.97;;;1.13;;
81310;SDS011;70779;52.506;5.492;2023-07-29T09:33:08;3.83;;;1.15;;
81310;SDS011;70779;52.506;5.492;2023-07-29T09:35:35;5.13;;;1.05;;
81310;SDS011;70779;52.506;5.492;2023-07-29T09:38:02;2.70;;;0.93;;
81310;SDS011;70779;52.506;5.492;2023-07-29T09:40:34;2.35;;;1.02;;
81310;SDS011;70779;52.506;5.492;2023-07-29T09:43:04;2.75;;;1.10;;
81310;SDS011;70779;52.506;5.492;2023-07-29T09:45:33;2.60;;;0.95;;
81310;SDS011;70779;52.506;5.492;2023-07-29T09:48:00;2.75;;;1.23;;
81310;SDS011;70779;52.506;5.492;2023-07-29T09:50:28;3.95;;;1.10;;
81310;SDS011;70779;52.506;5.492;2023-07-29T09:52:55;8.13;;;1.33;;
81310;SDS011;70779;52.506;5.492;2023-07-29T09:55:24;4.35;;;1.25;;
81310;SDS011;70779;52.506;5.492;2023-07-29T09:57:58;3.75;;;1.30;;
81310;SDS011;70779;52.506;5.492;2023-07-29T10:00:28;4.43;;;1.38;;
81310;SDS011;70779;52.506;5.492;2023-07-29T10:02:54;3.75;;;1.05;;
81310;SDS011;70779;52.506;5.492;2023-07-29T10:05:22;4.93;;;1.50;;
81310;SDS011;70779;52.506;5.492;2023-07-29T10:07:52;3.03;;;1.13;;
81310;SDS011;70779;52.506;5.492;2023-07-29T10:10:20;6.10;;;0.98;;
81310;SDS011;70779;52.506;5.492;2023-07-29T10:12:46;3.63;;;1.13;;
81310;SDS011;70779;52.506;5.492;2023-07-29T10:15:13;5.78;;;1.35;;
81310;SDS011;70779;52.506;5.492;2023-07-29T10:17:39;3.13;;;1.10;;
81310;SDS011;70779;52.506;5.492;2023-07-29T10:20:09;2.80;;;1.00;;
81310;SDS011;70779;52.506;5.492;2023-07-29T10:22:37;6.72;;;1.42;;
81310;SDS011;70779;52.506;5.492;2023-07-29T10:25:13;3.00;;;0.98;;
81310;SDS011;70779;52.506;5.492;2023-07-29T10:27:48;5.63;;;1.27;;
81310;SDS011;70779;52.506;5.492;2023-07-29T10:30:17;4.28;;;1.33;;
81310;SDS011;70779;52.506;5.492;2023-07-29T10:32:44;5.13;;;1.35;;
81310;SDS011;70779;52.506;5.492;2023-07-29T10:35:11;5.28;;;1.52;;
81310;SDS011;70779;52.506;5.492;2023-07-29T10:37:38;3.83;;;1.42;;
81310;SDS011;70779;52.506;5.492;2023-07-29T10:40:08;3.20;;;1.08;;
81310;SDS011;70779;52.506;5.492;2023-07-29T10:42:36;7.57;;;1.40;;
81310;SDS011;70779;52.506;5.492;2023-07-29T10:45:19;2.67;;;1.42;;
81310;SDS011;70779;52.506;5.492;2023-07-29T10:47:46;3.47;;;1.30;;
81310;SDS011;70779;52.506;5.492;2023-07-29T10:50:17;5.20;;;1.40;;
81310;SDS011;70779;52.506;5.492;2023-07-29T10:52:46;3.75;;;1.20;;
81310;SDS011;70779;52.506;5.492;2023-07-29T10:55:29;6.53;;;1.60;;
81310;SDS011;70779;52.506;5.492;2023-07-29T10:58:09;4.25;;;1.40;;
81310;SDS011;70779;52.506;5.492;2023-07-29T11:00:42;3.63;;;1.48;;
81310;SDS011;70779;52.506;5.492;2023-07-29T11:03:09;6.78;;;1.63;;
81310;SDS011;70779;52.506;5.492;2023-07-29T11:05:47;3.63;;;1.27;;
81310;SDS011;70779;52.506;5.492;2023-07-29T11:08:27;3.55;;;1.40;;
81310;SDS011;70779;52.506;5.492;2023-07-29T11:10:58;4.60;;;1.13;;
81310;SDS011;70779;52.506;5.492;2023-07-29T11:13:27;3.25;;;1.13;;
81310;SDS011;70779;52.506;5.492;2023-07-29T11:15:55;4.00;;;1.00;;
81310;SDS011;70779;52.506;5.492;2023-07-29T11:18:31;3.92;;;1.40;;
81310;SDS011;70779;52.506;5.492;2023-07-29T11:20:59;2.72;;;0.93;;
81310;SDS011;70779;52.506;5.492;2023-07-29T11:23:30;4.97;;;1.30;;
81310;SDS011;70779;52.506;5.492;2023-07-29T11:26:01;5.25;;;1.50;;
81310;SDS011;70779;52.506;5.492;2023-07-29T11:28:28;3.83;;;1.13;;
81310;SDS011;70779;52.506;5.492;2023-07-29T11:30:54;3.83;;;1.27;;
81310;SDS011;70779;52.506;5.492;2023-07-29T11:33:22;3.65;;;1.15;;
81310;SDS011;70779;52.506;5.492;2023-07-29T11:35:50;3.65;;;1.27;;
81310;SDS011;70779;52.506;5.492;2023-07-29T11:38:18;4.45;;;1.45;;
81310;SDS011;70779;52.506;5.492;2023-07-29T11:41:00;3.67;;;1.20;;
81310;SDS011;70779;52.506;5.492;2023-07-29T11:43:34;2.38;;;1.30;;
81310;SDS011;70779;52.506;5.492;2023-07-29T11:46:01;3.40;;;1.15;;
81310;SDS011;70779;52.506;5.492;2023-07-29T11:48:30;4.32;;;1.10;;
81310;SDS011;70779;52.506;5.492;2023-07-29T11:50:58;2.35;;;1.23;;
81310;SDS011;70779;52.506;5.492;2023-07-29T11:53:28;5.00;;;1.20;;
81310;SDS011;70779;52.506;5.492;2023-07-29T11:55:55;3.58;;;1.25;;
81310;SDS011;70779;52.506;5.492;2023-07-29T11:58:23;5.70;;;1.35;;
81310;SDS011;70779;52.506;5.492;2023-07-29T12:00:49;7.13;;;1.40;;
81310;SDS011;70779;52.506;5.492;2023-07-29T12:03:16;2.97;;;1.05;;
81310;SDS011;70779;52.506;5.492;2023-07-29T12:05:43;2.58;;;0.93;;
81310;SDS011;70779;52.506;5.492;2023-07-29T12:08:09;4.45;;;1.23;;
81310;SDS011;70779;52.506;5.492;2023-07-29T12:10:36;3.92;;;1.20;;
81310;SDS011;70779;52.506;5.492;2023-07-29T12:13:03;6.35;;;1.23;;
81310;SDS011;70779;52.506;5.492;2023-07-29T12:15:29;5.75;;;1.23;;
81310;SDS011;70779;52.506;5.492;2023-07-29T12:17:56;3.95;;;1.02;;
81310;SDS011;70779;52.506;5.492;2023-07-29T12:20:23;3.30;;;1.15;;
81310;SDS011;70779;52.506;5.492;2023-07-29T12:22:53;4.93;;;1.10;;
81310;SDS011;70779;52.506;5.492;2023-07-29T12:25:20;3.10;;;1.02;;
81310;SDS011;70779;52.506;5.492;2023-07-29T12:27:47;3.72;;;1.33;;
81310;SDS011;70779;52.506;5.492;2023-07-29T12:30:13;5.68;;;1.20;;
81310;SDS011;70779;52.506;5.492;2023-07-29T12:32:43;4.20;;;1.25;;
81310;SDS011;70779;52.506;5.492;2023-07-29T12:35:10;3.00;;;1.27;;
81310;SDS011;70779;52.506;5.492;2023-07-29T12:37:36;4.70;;;0.93;;
81310;SDS011;70779;52.506;5.492;2023-07-29T12:40:04;2.17;;;0.90;;
81310;SDS011;70779;52.506;5.492;2023-07-29T12:42:31;3.15;;;1.25;;
81310;SDS011;70779;52.506;5.492;2023-07-29T12:44:57;6.80;;;1.30;;
81310;SDS011;70779;52.506;5.492;2023-07-29T12:47:23;3.92;;;1.33;;
81310;SDS011;70779;52.506;5.492;2023-07-29T12:49:49;2.63;;;1.55;;
81310;SDS011;70779;52.506;5.492;2023-07-29T12:52:15;2.58;;;1.08;;
81310;SDS011;70779;52.506;5.492;2023-07-29T12:54:41;4.57;;;1.30;;
81310;SDS011;70779;52.506;5.492;2023-07-29T12:57:09;4.20;;;1.42;;
81310;SDS011;70779;52.506;5.492;2023-07-29T12:59:35;3.00;;;1.17;;
81310;SDS011;70779;52.506;5.492;2023-07-29T13:02:01;6.22;;;1.63;;
81310;SDS011;70779;52.506;5.492;2023-07-29T13:04:28;6.15;;;1.92;;
81310;SDS011;70779;52.506;5.492;2023-07-29T13:06:54;3.50;;;1.52;;
81310;SDS011;70779;52.506;5.492;2023-07-29T13:09:21;4.30;;;1.40;;
81310;SDS011;70779;52.506;5.492;2023-07-29T13:11:48;4.18;;;1.42;;
81310;SDS011;70779;52.506;5.492;2023-07-29T13:14:14;3.45;;;1.20;;
81310;SDS011;70779;52.506;5.492;2023-07-29T13:16:40;2.20;;;1.15;;
81310;SDS011;70779;52.506;5.492;2023-07-29T13:19:06;2.80;;;0.93;;
81310;SDS011;70779;52.506;5.492;2023-07-29T13:21:32;2.67;;;0.73;;
81310;SDS011;70779;52.506;5.492;2023-07-29T13:23:58;1.10;;;0.88;;
81310;SDS011;70779;52.506;5.492;2023-07-29T13:26:24;3.30;;;0.80;;
81310;SDS011;70779;52.506;5.492;2023-07-29T13:28:51;2.08;;;0.80;;
81310;SDS011;70779;52.506;5.492;2023-07-29T13:31:17;1.52;;;0.60;;
81310;SDS011;70779;52.506;5.492;2023-07-29T13:33:43;0.68;;;0.43;;
81310;SDS011;70779;52.506;5.492;2023-07-29T13:36:09;1.77;;;0.60;;
81310;SDS011;70779;52.506;5.492;2023-07-29T13:38:35;2.25;;;0.50;;
81310;SDS011;70779;52.506;5.492;2023-07-29T13:41:01;2.40;;;0.60;;
81310;SDS011;70779;52.506;5.492;2023-07-29T13:43:27;1.55;;;0.90;;
81310;SDS011;70779;52.506;5.492;2023-07-29T13:45:53;2.00;;;0.55;;
81310;SDS011;70779;52.506;5.492;2023-07-29T13:48:20;1.60;;;0.57;;
81310;SDS011;70779;52.506;5.492;2023-07-29T13:50:46;3.00;;;0.57;;
81310;SDS011;70779;52.506;5.492;2023-07-29T13:53:12;4.20;;;0.80;;
81310;SDS011;70779;52.506;5.492;2023-07-29T13:55:38;0.90;;;0.63;;
81310;SDS011;70779;52.506;5.492;2023-07-29T13:58:04;2.33;;;1.20;;
81310;SDS011;70779;52.506;5.492;2023-07-29T14:00:30;3.40;;;0.47;;
81310;SDS011;70779;52.506;5.492;2023-07-29T14:02:56;2.85;;;0.90;;
81310;SDS011;70779;52.506;5.492;2023-07-29T14:05:22;1.92;;;0.65;;
81310;SDS011;70779;52.506;5.492;2023-07-29T14:07:48;1.48;;;0.55;;
81310;SDS011;70779;52.506;5.492;2023-07-29T14:10:14;1.48;;;0.70;;
81310;SDS011;70779;52.506;5.492;2023-07-29T14:12:40;1.25;;;0.57;;
81310;SDS011;70779;52.506;5.492;2023-07-29T14:15:07;1.38;;;0.43;;
81310;SDS011;70779;52.506;5.492;2023-07-29T14:17:33;2.13;;;0.60;;
81310;SDS011;70779;52.506;5.492;2023-07-29T14:19:59;1.98;;;0.65;;
81310;SDS011;70779;52.506;5.492;2023-07-29T14:22:26;1.02;;;0.52;;
81310;SDS011;70779;52.506;5.492;2023-07-29T14:24:52;1.65;;;0.73;;
81310;SDS011;70779;52.506;5.492;2023-07-29T14:27:18;2.72;;;0.77;;
81310;SDS011;70779;52.506;5.492;2023-07-29T14:29:44;3.30;;;0.75;;
81310;SDS011;70779;52.506;5.492;2023-07-29T14:32:10;1.67;;;0.52;;
81310;SDS011;70779;52.506;5.492;2023-07-29T14:34:36;3.13;;;0.75;;
81310;SDS011;70779;52.506;5.492;2023-07-29T14:37:02;1.15;;;0.70;;
81310;SDS011;70779;52.506;5.492;2023-07-29T14:39:28;2.72;;;0.80;;
81310;SDS011;70779;52.506;5.492;2023-07-29T14:41:55;2.97;;;0.80;;
81310;SDS011;70779;52.506;5.492;2023-07-29T14:44:21;3.70;;;0.68;;
81310;SDS011;70779;52.506;5.492;2023-07-29T14:46:47;3.97;;;0.80;;
81310;SDS011;70779;52.506;5.492;2023-07-29T14:49:13;4.45;;;1.30;;
81310;SDS011;70779;52.506;5.492;2023-07-29T14:51:39;2.35;;;0.80;;
81310;SDS011;70779;52.506;5.492;2023-07-29T14:54:05;1.83;;;1.00;;